Time;durP1;ratioP1;P1;durP2;ratioP2;P2;SDS_P1;SDS_P2;PMS_P1;PMS_P2;Temp;Humidity;BMP_temperature;BMP_pressure;BME280_temperature;BME280_humidity;BME280_pressure;Samples;Min_cycle;Max_cycle;Signal;HPM_P1;HPM_P2
2024/01/20 00:01:36;;;;;;;18.33;5.73;;;-2.00;99.90;;;;;;5036651;28;20033;-56
2024/01/20 00:04:02;;;;;;;17.53;6.00;;;-2.00;99.90;;;;;;5036550;28;20450;-57
2024/01/20 00:06:27;;;;;;;15.87;6.23;;;-2.00;99.90;;;;;;5037249;28;20030;-54
2024/01/20 00:08:53;;;;;;;14.27;6.17;;;-2.00;99.90;;;;;;5036581;28;20038;-54
2024/01/20 00:11:18;;;;;;;17.43;6.03;;;-2.00;99.90;;;;;;5037249;28;20104;-53
2024/01/20 00:13:44;;;;;;;17.63;6.57;;;-2.00;99.90;;;;;;5036859;28;20045;-56
2024/01/20 00:16:09;;;;;;;16.90;5.90;;;-2.00;99.90;;;;;;5035723;28;20116;-53
2024/01/20 00:18:35;;;;;;;22.23;6.57;;;-2.10;99.90;;;;;;5034435;28;20033;-56
2024/01/20 00:21:01;;;;;;;17.60;5.30;;;-2.20;99.90;;;;;;5036142;28;20394;-56
2024/01/20 00:23:26;;;;;;;15.30;5.40;;;-2.10;99.90;;;;;;5035124;28;20032;-55
2024/01/20 00:25:52;;;;;;;20.70;6.53;;;-2.10;99.90;;;;;;5036827;28;20032;-54
2024/01/20 00:28:18;;;;;;;14.87;5.83;;;-2.10;99.90;;;;;;5036279;28;20191;-53
2024/01/20 00:30:44;;;;;;;21.37;5.60;;;-2.20;99.90;;;;;;5036308;28;20498;-56
2024/01/20 00:33:10;;;;;;;15.30;4.77;;;-2.20;99.90;;;;;;5035906;28;20432;-55
2024/01/20 00:35:36;;;;;;;15.30;5.73;;;-2.20;99.90;;;;;;5036642;28;20034;-51
2024/01/20 00:38:03;;;;;;;21.07;4.80;;;-2.20;99.90;;;;;;5036303;28;20025;-56
2024/01/20 00:40:29;;;;;;;12.97;4.50;;;-2.30;99.90;;;;;;5035983;28;20944;-53
2024/01/20 00:42:54;;;;;;;12.07;5.20;;;-2.30;99.90;;;;;;5035546;28;20586;-56
2024/01/20 00:45:20;;;;;;;14.17;5.63;;;-2.30;99.90;;;;;;5036045;28;20494;-55
2024/01/20 00:47:46;;;;;;;17.13;5.63;;;-2.40;99.90;;;;;;5036095;28;20029;-54
2024/01/20 00:50:12;;;;;;;13.23;5.67;;;-2.40;99.90;;;;;;5035809;28;20462;-53
2024/01/20 00:52:37;;;;;;;15.53;5.57;;;-2.40;99.90;;;;;;5035828;28;20038;-54
2024/01/20 00:55:04;;;;;;;19.53;5.73;;;-2.40;99.90;;;;;;5035555;28;20097;-56
2024/01/20 00:57:29;;;;;;;18.10;6.20;;;-2.50;99.90;;;;;;5035136;28;20033;-56
2024/01/20 00:59:56;;;;;;;13.67;5.50;;;-2.40;99.90;;;;;;5035803;28;20455;-56
2024/01/20 01:02:23;;;;;;;15.63;5.37;;;-2.40;99.90;;;;;;5035850;28;20041;-51
2024/01/20 01:04:49;;;;;;;14.43;5.13;;;-2.40;99.90;;;;;;5035640;28;20781;-55
2024/01/20 01:07:15;;;;;;;14.30;5.40;;;-2.40;99.90;;;;;;5035889;28;20428;-56
2024/01/20 01:09:40;;;;;;;17.70;5.33;;;-2.50;99.90;;;;;;5035501;28;20425;-56
2024/01/20 01:12:06;;;;;;;16.87;5.07;;;-2.50;99.90;;;;;;5035315;28;20029;-57
2024/01/20 01:14:32;;;;;;;20.47;6.17;;;-2.60;99.90;;;;;;5036000;28;20038;-55
2024/01/20 01:16:57;;;;;;;18.97;5.67;;;-2.60;99.90;;;;;;5035462;28;20049;-53
2024/01/20 01:19:24;;;;;;;13.70;5.50;;;-2.60;99.90;;;;;;5034928;28;20444;-55
2024/01/20 01:21:50;;;;;;;15.00;6.07;;;-2.60;99.90;;;;;;5035155;28;20029;-56
2024/01/20 01:24:16;;;;;;;26.23;5.77;;;-2.60;99.90;;;;;;5035380;28;20805;-54
2024/01/20 01:26:41;;;;;;;14.93;5.57;;;-2.60;99.90;;;;;;5035061;28;20017;-57
2024/01/20 01:29:07;;;;;;;20.03;6.07;;;-2.60;99.90;;;;;;5034894;28;20057;-56
2024/01/20 01:31:33;;;;;;;14.53;5.23;;;-2.50;99.90;;;;;;5035249;28;20029;-56
2024/01/20 01:33:58;;;;;;;17.87;5.83;;;-2.50;99.90;;;;;;5034653;28;20037;-55
2024/01/20 01:36:24;;;;;;;16.07;5.00;;;-2.50;99.90;;;;;;5035085;28;20504;-57
2024/01/20 01:38:49;;;;;;;24.43;6.90;;;-2.50;99.90;;;;;;5034809;28;20029;-56
2024/01/20 01:41:15;;;;;;;16.37;4.67;;;-2.40;99.90;;;;;;5034939;28;20378;-56
2024/01/20 01:43:41;;;;;;;21.10;5.70;;;-2.40;99.90;;;;;;5034633;28;20028;-56
2024/01/20 01:46:07;;;;;;;12.97;5.37;;;-2.40;99.90;;;;;;5034925;28;20025;-56
2024/01/20 01:48:33;;;;;;;13.10;4.80;;;-2.40;99.90;;;;;;5035247;28;20034;-56
2024/01/20 01:51:02;;;;;;;18.97;5.70;;;-2.40;99.90;;;;;;5034821;28;20029;-56
2024/01/20 01:53:28;;;;;;;21.02;5.80;;;-2.30;99.90;;;;;;5034993;28;20578;-55
2024/01/20 01:55:54;;;;;;;19.17;5.40;;;-2.30;99.90;;;;;;5034787;28;20061;-54
2024/01/20 01:58:21;;;;;;;16.20;5.70;;;-2.20;99.90;;;;;;5034589;28;20025;-56
2024/01/20 02:00:47;;;;;;;17.67;6.10;;;-2.20;99.90;;;;;;5016908;28;20542;-56
2024/01/20 02:03:13;;;;;;;17.80;7.13;;;-2.30;99.90;;;;;;5034451;28;20463;-55
2024/01/20 02:05:39;;;;;;;18.40;5.73;;;-2.30;99.90;;;;;;5035185;28;20527;-56
2024/01/20 02:08:05;;;;;;;21.70;7.00;;;-2.30;99.90;;;;;;5034846;28;20116;-55
2024/01/20 02:10:32;;;;;;;18.83;6.23;;;-2.30;99.90;;;;;;5034510;28;20025;-53
2024/01/20 02:12:58;;;;;;;22.47;6.80;;;-2.20;99.90;;;;;;5034594;28;20489;-56
2024/01/20 02:15:25;;;;;;;21.77;6.63;;;-2.20;99.90;;;;;;5034604;28;20459;-55
2024/01/20 02:17:52;;;;;;;24.00;6.77;;;-2.20;99.90;;;;;;5035094;28;20468;-56
2024/01/20 02:20:18;;;;;;;16.70;5.97;;;-2.20;99.90;;;;;;5034864;28;20151;-54
2024/01/20 02:22:43;;;;;;;19.03;5.83;;;-2.20;99.90;;;;;;5034700;28;20976;-55
2024/01/20 02:25:09;;;;;;;16.87;5.67;;;-2.10;99.90;;;;;;5017073;28;20040;-56
2024/01/20 02:27:35;;;;;;;18.60;6.17;;;-2.10;99.90;;;;;;5034877;28;20466;-55
2024/01/20 02:30:00;;;;;;;17.20;6.30;;;-2.10;99.90;;;;;;5034615;28;20079;-55
2024/01/20 02:32:26;;;;;;;16.70;6.60;;;-2.10;99.90;;;;;;5033789;28;20064;-53
2024/01/20 02:34:51;;;;;;;18.10;6.67;;;-2.10;99.90;;;;;;5034212;28;20482;-56
2024/01/20 02:37:17;;;;;;;25.27;6.93;;;-2.10;99.90;;;;;;5034993;28;20060;-53
2024/01/20 02:39:43;;;;;;;25.53;7.37;;;-2.10;99.90;;;;;;5034114;28;20029;-54
2024/01/20 02:42:10;;;;;;;30.00;6.97;;;-2.10;99.90;;;;;;5038086;28;20030;-55
2024/01/20 02:44:37;;;;;;;21.60;6.70;;;-2.20;99.90;;;;;;5038140;28;20799;-53
2024/01/20 02:47:03;;;;;;;25.83;6.23;;;-2.10;99.90;;;;;;5038270;28;20470;-55
2024/01/20 02:49:29;;;;;;;23.73;6.43;;;-2.10;99.90;;;;;;5037490;28;20447;-54
2024/01/20 02:51:54;;;;;;;20.47;7.00;;;-2.10;99.90;;;;;;5037979;28;20436;-52
2024/01/20 02:54:20;;;;;;;19.73;6.27;;;-2.10;99.90;;;;;;5037643;28;20029;-56
2024/01/20 02:56:45;;;;;;;20.93;7.90;;;-2.10;99.90;;;;;;5037768;28;20033;-54
2024/01/20 02:59:11;;;;;;;17.97;5.87;;;-2.10;99.90;;;;;;5037737;28;20117;-54
2024/01/20 03:01:37;;;;;;;15.87;5.07;;;-2.10;99.90;;;;;;5037586;28;20060;-56
2024/01/20 03:04:02;;;;;;;21.67;7.10;;;-2.20;99.90;;;;;;5036745;28;20410;-53
2024/01/20 03:06:28;;;;;;;21.60;7.37;;;-2.10;99.90;;;;;;5037906;28;20055;-53
2024/01/20 03:08:54;;;;;;;15.40;5.47;;;-2.10;99.90;;;;;;5037715;28;20040;-54
2024/01/20 03:11:20;;;;;;;19.97;6.47;;;-2.10;99.90;;;;;;5037211;28;20029;-56
2024/01/20 03:13:45;;;;;;;20.90;6.57;;;-2.10;99.90;;;;;;5037283;28;20432;-53
2024/01/20 03:16:11;;;;;;;29.20;7.20;;;-2.10;99.90;;;;;;5037876;28;20026;-52
2024/01/20 03:18:37;;;;;;;24.07;6.13;;;-2.10;99.90;;;;;;5037078;28;20073;-52
2024/01/20 03:21:06;;;;;;;19.20;6.63;;;-2.20;99.90;;;;;;5036059;28;20372;-56
2024/01/20 03:23:32;;;;;;;23.95;7.30;;;-2.20;99.90;;;;;;5037343;28;20482;-53
2024/01/20 03:25:58;;;;;;;24.03;7.20;;;-2.20;99.90;;;;;;5037802;28;20026;-56
2024/01/20 03:28:23;;;;;;;25.20;7.70;;;-2.30;99.90;;;;;;5036354;28;20511;-53
2024/01/20 03:30:49;;;;;;;24.87;7.47;;;-2.30;99.90;;;;;;5037019;28;20028;-56
2024/01/20 03:33:14;;;;;;;24.10;7.40;;;-2.30;99.90;;;;;;5037026;28;20060;-57
2024/01/20 03:35:40;;;;;;;19.97;7.40;;;-2.30;99.90;;;;;;5037007;28;20037;-56
2024/01/20 03:38:06;;;;;;;24.57;7.13;;;-2.30;99.90;;;;;;5037221;28;20025;-52
2024/01/20 03:40:31;;;;;;;21.60;7.63;;;-2.30;99.90;;;;;;5036914;28;20036;-52
2024/01/20 03:42:57;;;;;;;19.50;7.00;;;-2.40;99.90;;;;;;5036963;28;20036;-54
2024/01/20 03:45:23;;;;;;;25.43;7.53;;;-2.40;99.90;;;;;;5036810;28;20386;-57
2024/01/20 03:47:48;;;;;;;25.13;8.43;;;-2.40;99.90;;;;;;5037039;28;20036;-53
2024/01/20 03:50:14;;;;;;;19.80;6.47;;;-2.30;99.90;;;;;;5037047;28;20068;-54
2024/01/20 03:52:40;;;;;;;27.17;7.20;;;-2.30;99.90;;;;;;5034856;28;20065;-56
2024/01/20 03:55:06;;;;;;;27.60;8.17;;;-2.30;99.90;;;;;;5036632;28;20030;-56
2024/01/20 03:57:32;;;;;;;17.40;6.87;;;-2.20;99.90;;;;;;5036618;28;20030;-54
2024/01/20 03:59:58;;;;;;;21.67;7.13;;;-2.30;99.90;;;;;;5036548;28;20451;-51
2024/01/20 04:02:23;;;;;;;23.27;7.57;;;-2.30;99.90;;;;;;5035014;28;20470;-55
2024/01/20 04:04:49;;;;;;;19.87;7.03;;;-2.30;99.90;;;;;;5036497;28;20202;-55
2024/01/20 04:07:15;;;;;;;28.17;7.20;;;-2.20;99.90;;;;;;5037043;28;20465;-56
2024/01/20 04:09:41;;;;;;;16.87;6.10;;;-2.20;99.90;;;;;;5036629;28;20029;-54
2024/01/20 04:12:07;;;;;;;24.50;7.23;;;-2.20;99.90;;;;;;5036634;28;20052;-55
2024/01/20 04:14:32;;;;;;;22.20;6.53;;;-2.20;99.90;;;;;;5034751;28;20436;-56
2024/01/20 04:16:58;;;;;;;21.00;6.87;;;-2.20;99.90;;;;;;5035275;28;20025;-56
2024/01/20 04:19:24;;;;;;;20.60;6.50;;;-2.20;99.90;;;;;;5036343;28;20088;-56
2024/01/20 04:21:49;;;;;;;26.53;7.97;;;-2.20;99.90;;;;;;5036112;28;20072;-53
2024/01/20 04:24:15;;;;;;;22.40;7.30;;;-2.10;99.90;;;;;;5036643;28;20033;-55
2024/01/20 04:26:40;;;;;;;23.70;5.73;;;-2.10;99.90;;;;;;5036339;28;20063;-51
2024/01/20 04:29:06;;;;;;;21.03;6.83;;;-2.10;99.90;;;;;;5035894;28;20105;-53
2024/01/20 04:31:32;;;;;;;21.93;7.73;;;-2.10;99.90;;;;;;5035794;28;20087;-56
2024/01/20 04:33:57;;;;;;;16.87;5.87;;;-2.20;99.90;;;;;;5035195;28;20486;-54
2024/01/20 04:36:23;;;;;;;21.90;6.90;;;-2.20;99.90;;;;;;5036626;28;20120;-53
2024/01/20 04:38:49;;;;;;;19.40;7.10;;;-2.30;99.90;;;;;;5036164;28;20125;-54
2024/01/20 04:41:14;;;;;;;21.57;7.10;;;-2.30;99.90;;;;;;5036078;28;20475;-52
2024/01/20 04:43:40;;;;;;;21.27;5.70;;;-2.30;99.90;;;;;;5035931;28;20026;-55
2024/01/20 04:46:06;;;;;;;17.00;5.60;;;-2.20;99.90;;;;;;5034452;28;20033;-55
2024/01/20 04:48:31;;;;;;;24.67;7.10;;;-2.20;99.90;;;;;;5035948;28;20029;-56
2024/01/20 04:50:57;;;;;;;14.40;5.27;;;-2.20;99.90;;;;;;5035842;28;20033;-53
2024/01/20 04:53:23;;;;;;;19.57;6.63;;;-2.20;99.90;;;;;;5035809;28;20040;-52
2024/01/20 04:55:49;;;;;;;18.47;6.77;;;-2.20;99.90;;;;;;5036377;28;20021;-56
2024/01/20 04:58:14;;;;;;;20.13;5.40;;;-2.20;99.90;;;;;;5034408;28;20087;-56
2024/01/20 05:00:40;;;;;;;15.53;6.37;;;-2.20;99.90;;;;;;5036089;28;20788;-52
2024/01/20 05:03:05;;;;;;;16.47;5.60;;;-2.20;99.90;;;;;;5033413;28;20033;-53
2024/01/20 05:05:32;;;;;;;20.30;5.70;;;-2.30;99.90;;;;;;5035384;28;20029;-54
2024/01/20 05:07:57;;;;;;;17.13;6.23;;;-2.30;99.90;;;;;;5035504;28;20501;-55
2024/01/20 05:10:23;;;;;;;22.17;6.37;;;-2.30;99.90;;;;;;5033417;28;20448;-53
2024/01/20 05:12:48;;;;;;;21.83;6.00;;;-2.30;99.90;;;;;;5035750;28;20040;-55
2024/01/20 05:15:14;;;;;;;16.77;6.40;;;-2.40;99.90;;;;;;5034452;28;20043;-53
2024/01/20 05:17:40;;;;;;;17.60;5.60;;;-2.40;99.90;;;;;;5033893;28;20100;-56
2024/01/20 05:20:06;;;;;;;18.23;6.13;;;-2.40;99.90;;;;;;5034933;28;20041;-54
2024/01/20 05:22:32;;;;;;;17.33;5.37;;;-2.30;99.90;;;;;;5035014;28;20037;-54
2024/01/20 05:24:57;;;;;;;18.87;5.67;;;-2.30;99.90;;;;;;5033711;28;20447;-52
2024/01/20 05:27:23;;;;;;;20.90;7.27;;;-2.40;99.90;;;;;;5033944;28;20064;-54
2024/01/20 05:29:49;;;;;;;15.90;6.13;;;-2.30;99.90;;;;;;5035072;28;20057;-52
2024/01/20 05:32:17;;;;;;;19.83;7.43;;;-2.30;99.90;;;;;;5034932;28;20030;-56
2024/01/20 05:34:43;;;;;;;18.13;6.10;;;-2.30;99.90;;;;;;5035101;28;20436;-56
2024/01/20 05:37:08;;;;;;;15.47;5.47;;;-2.30;99.90;;;;;;5034765;28;20530;-55
2024/01/20 05:39:34;;;;;;;18.17;5.70;;;-2.30;99.90;;;;;;5035151;28;20029;-55
2024/01/20 05:42:00;;;;;;;25.80;7.50;;;-2.40;99.90;;;;;;5034694;28;20493;-55
2024/01/20 05:44:26;;;;;;;20.67;6.30;;;-2.40;99.90;;;;;;5034941;28;20037;-56
2024/01/20 05:46:52;;;;;;;19.77;6.93;;;-2.50;99.90;;;;;;5035103;28;20447;-54
2024/01/20 05:49:18;;;;;;;21.57;6.03;;;-2.50;99.90;;;;;;5034912;28;20498;-55
2024/01/20 05:51:44;;;;;;;21.17;7.10;;;-2.50;99.90;;;;;;5034435;28;20152;-56
2024/01/20 05:54:10;;;;;;;19.83;6.63;;;-2.50;99.90;;;;;;5035044;28;20041;-55
2024/01/20 05:56:35;;;;;;;23.43;6.10;;;-2.50;99.90;;;;;;5033340;28;20466;-54
2024/01/20 05:59:01;;;;;;;18.73;6.53;;;-2.50;99.90;;;;;;5034471;28;20029;-52
2024/01/20 06:01:27;;;;;;;25.17;6.73;;;-2.50;99.90;;;;;;5034361;28;20025;-54
2024/01/20 06:03:52;;;;;;;24.13;6.80;;;-2.60;99.90;;;;;;5034392;28;20532;-54
2024/01/20 06:06:18;;;;;;;22.07;6.97;;;-2.50;99.90;;;;;;5033366;28;20033;-56
2024/01/20 06:08:43;;;;;;;25.03;6.90;;;-2.50;99.90;;;;;;5033629;28;20022;-54
2024/01/20 06:11:10;;;;;;;27.77;6.63;;;-2.50;99.90;;;;;;5033383;28;20040;-53
2024/01/20 06:13:37;;;;;;;19.57;6.87;;;-2.50;99.90;;;;;;5016611;28;20029;-54
2024/01/20 06:16:04;;;;;;;19.13;5.53;;;-2.60;99.90;;;;;;5038337;28;20526;-52
2024/01/20 06:18:31;;;;;;;23.87;7.00;;;-2.50;99.90;;;;;;5037017;28;20674;-56
2024/01/20 06:20:59;;;;;;;18.10;6.00;;;-2.50;99.90;;;;;;5038654;28;20590;-55
2024/01/20 06:23:25;;;;;;;17.20;5.70;;;-2.50;99.90;;;;;;5037785;28;20467;-52
2024/01/20 06:25:51;;;;;;;24.90;6.70;;;-2.50;99.90;;;;;;5038646;28;20456;-52
2024/01/20 06:28:17;;;;;;;26.53;7.43;;;-2.60;99.90;;;;;;5038362;28;20431;-54
2024/01/20 06:30:46;;;;;;;15.20;6.07;;;-2.60;99.90;;;;;;5038273;28;20394;-54
2024/01/20 06:33:12;;;;;;;16.50;6.13;;;-2.60;99.90;;;;;;5038517;28;20523;-50
2024/01/20 06:35:37;;;;;;;20.53;6.87;;;-2.60;99.90;;;;;;5039058;28;20444;-52
2024/01/20 06:38:04;;;;;;;19.27;5.93;;;-2.70;99.90;;;;;;5037088;28;20068;-52
2024/01/20 06:40:29;;;;;;;14.63;5.00;;;-2.70;99.90;;;;;;5037712;28;20479;-56
2024/01/20 06:42:55;;;;;;;18.67;5.53;;;-2.70;99.90;;;;;;5038060;28;20459;-55
2024/01/20 06:45:21;;;;;;;18.60;5.77;;;-2.80;99.90;;;;;;5038309;28;20029;-51
2024/01/20 06:47:46;;;;;;;10.77;4.13;;;-2.80;99.90;;;;;;5036894;28;20025;-56
2024/01/20 06:50:13;;;;;;;19.23;6.00;;;-2.80;99.90;;;;;;5038332;28;20475;-53
2024/01/20 06:52:38;;;;;;;18.60;6.47;;;-2.90;99.90;;;;;;5037956;28;20037;-50
2024/01/20 06:55:05;;;;;;;22.83;6.33;;;-2.90;99.90;;;;;;5038044;28;20452;-53
2024/01/20 06:57:30;;;;;;;8.17;4.03;;;-2.90;99.90;;;;;;5038047;28;20040;-52
2024/01/20 06:59:56;;;;;;;21.67;6.93;;;-2.90;99.90;;;;;;5037693;28;20439;-53
2024/01/20 07:02:22;;;;;;;17.33;6.53;;;-2.90;99.90;;;;;;5036110;28;20427;-52
2024/01/20 07:04:47;;;;;;;20.97;6.07;;;-2.90;99.90;;;;;;5037783;28;20029;-53
2024/01/20 07:07:13;;;;;;;15.63;6.57;;;-2.90;99.90;;;;;;5037535;28;20030;-55
2024/01/20 07:09:39;;;;;;;21.80;7.30;;;-2.90;99.90;;;;;;5037422;28;20029;-53
2024/01/20 07:12:06;;;;;;;19.90;6.27;;;-2.80;99.90;;;;;;5037353;28;20442;-52
2024/01/20 07:14:32;;;;;;;26.13;6.17;;;-2.90;99.90;;;;;;5037817;28;20450;-52
2024/01/20 07:16:57;;;;;;;15.93;6.37;;;-2.90;99.90;;;;;;5035974;28;20440;-54
2024/01/20 07:19:23;;;;;;;7.40;4.07;;;-2.90;99.90;;;;;;5035454;28;20613;-55
2024/01/20 07:21:48;;;;;;;20.60;6.27;;;-2.90;99.90;;;;;;5036571;28;20040;-55
2024/01/20 07:24:14;;;;;;;23.30;6.93;;;-2.90;99.90;;;;;;5035373;28;20041;-55
2024/01/20 07:26:39;;;;;;;15.30;6.13;;;-2.90;99.90;;;;;;5035698;28;20029;-51
2024/01/20 07:29:05;;;;;;;16.23;6.03;;;-2.90;99.90;;;;;;5035572;28;20033;-54
2024/01/20 07:31:31;;;;;;;17.47;5.90;;;-2.90;99.90;;;;;;5035123;28;20030;-55
2024/01/20 07:33:56;;;;;;;19.23;6.53;;;-2.90;99.90;;;;;;5034772;28;20032;-54
2024/01/20 07:36:22;;;;;;;20.70;6.37;;;-2.80;99.90;;;;;;5036288;28;20057;-54
2024/01/20 07:38:47;;;;;;;16.87;6.57;;;-2.80;99.90;;;;;;5037759;28;20476;-57
2024/01/20 07:41:13;;;;;;;14.83;5.50;;;-2.90;99.90;;;;;;5037186;28;20092;-53
2024/01/20 07:43:39;;;;;;;17.77;5.77;;;-2.90;99.90;;;;;;5036421;28;20079;-55
2024/01/20 07:46:04;;;;;;;16.53;6.17;;;-2.90;99.90;;;;;;5036746;28;20037;-51
2024/01/20 07:48:30;;;;;;;23.73;6.37;;;-3.00;99.90;;;;;;5037060;28;20432;-53
2024/01/20 07:50:56;;;;;;;17.67;6.50;;;-3.00;99.90;;;;;;5037697;28;20029;-54
2024/01/20 07:53:21;;;;;;;18.17;6.07;;;-3.10;99.90;;;;;;5036643;28;20029;-56
2024/01/20 07:55:48;;;;;;;18.27;6.33;;;-3.10;99.90;;;;;;5035421;28;20025;-57
2024/01/20 07:58:14;;;;;;;13.60;4.80;;;-3.10;99.90;;;;;;5036635;28;20025;-50
2024/01/20 08:00:39;;;;;;;15.63;6.47;;;-3.10;99.90;;;;;;5036885;28;20454;-53
2024/01/20 08:03:05;;;;;;;15.77;6.03;;;-3.10;99.90;;;;;;5036583;28;20386;-55
2024/01/20 08:05:31;;;;;;;14.43;5.83;;;-3.20;99.90;;;;;;5036631;28;20051;-54
2024/01/20 08:07:57;;;;;;;14.03;4.63;;;-3.20;99.90;;;;;;5036685;28;20037;-51
2024/01/20 08:10:23;;;;;;;20.07;6.17;;;-3.10;99.90;;;;;;5037168;28;20428;-50
2024/01/20 08:12:51;;;;;;;19.40;6.27;;;-3.10;99.90;;;;;;5036159;28;20034;-55
2024/01/20 08:15:16;;;;;;;17.53;6.30;;;-3.10;99.90;;;;;;5036261;28;20036;-55
2024/01/20 08:17:42;;;;;;;19.30;6.87;;;-3.10;99.90;;;;;;5036342;28;20490;-53
2024/01/20 08:20:09;;;;;;;14.40;5.63;;;-3.10;99.90;;;;;;5036404;28;20040;-54
2024/01/20 08:22:34;;;;;;;21.27;7.07;;;-3.10;99.90;;;;;;5035569;28;20128;-52
2024/01/20 08:25:03;;;;;;;10.47;4.80;;;-3.10;99.90;;;;;;5035941;28;20502;-53
2024/01/20 08:27:28;;;;;;;11.97;4.57;;;-3.00;99.90;;;;;;5035172;28;20029;-55
2024/01/20 08:29:54;;;;;;;14.27;3.90;;;-3.00;99.90;;;;;;5035550;28;20960;-51
2024/01/20 08:32:20;;;;;;;16.80;5.73;;;-3.10;99.90;;;;;;5036083;28;20091;-50
2024/01/20 08:34:45;;;;;;;8.57;3.87;;;-3.10;99.90;;;;;;5036725;28;20112;-54
2024/01/20 08:37:11;;;;;;;17.93;5.40;;;-3.00;99.90;;;;;;5036134;28;20040;-54
2024/01/20 08:39:37;;;;;;;10.57;4.70;;;-2.90;99.90;;;;;;5035146;28;20036;-52
2024/01/20 08:42:03;;;;;;;11.77;5.03;;;-2.90;99.90;;;;;;5036308;28;20025;-51
2024/01/20 08:44:32;;;;;;;14.83;5.33;;;-2.90;99.90;;;;;;5036139;28;20124;-54
2024/01/20 08:47:00;;;;;;;13.97;5.10;;;-2.90;99.90;;;;;;5034775;28;20441;-52
2024/01/20 08:49:26;;;;;;;13.90;5.23;;;-3.00;99.90;;;;;;5035851;28;20478;-54
2024/01/20 08:51:53;;;;;;;19.83;4.97;;;-3.10;99.90;;;;;;5035939;28;20444;-51
2024/01/20 08:54:18;;;;;;;15.50;5.60;;;-3.10;99.90;;;;;;5036302;28;20547;-54
2024/01/20 08:56:44;;;;;;;28.53;11.27;;;-3.00;99.90;;;;;;5036143;28;20499;-54
2024/01/20 08:59:10;;;;;;;10.37;4.77;;;-2.90;99.90;;;;;;5035781;28;20061;-54
2024/01/20 09:01:35;;;;;;;7.07;3.87;;;-2.90;99.90;;;;;;5035637;28;20432;-51
2024/01/20 09:04:01;;;;;;;16.67;5.60;;;-2.90;99.90;;;;;;5035763;28;20455;-53
2024/01/20 09:06:27;;;;;;;12.13;4.37;;;-3.00;99.90;;;;;;5035788;28;20033;-56
2024/01/20 09:08:52;;;;;;;8.33;3.93;;;-3.00;99.90;;;;;;5034909;28;20403;-56
2024/01/20 09:11:18;;;;;;;15.20;5.13;;;-2.90;99.90;;;;;;5035771;28;20471;-52
2024/01/20 09:13:44;;;;;;;14.37;5.20;;;-2.90;99.90;;;;;;5035276;28;20029;-53
2024/01/20 09:16:10;;;;;;;15.20;5.60;;;-2.80;99.90;;;;;;5035403;28;20497;-55
2024/01/20 09:18:35;;;;;;;12.50;4.90;;;-2.80;99.90;;;;;;5034058;28;20040;-54
2024/01/20 09:21:01;;;;;;;11.37;4.30;;;-2.60;99.90;;;;;;5035260;28;20040;-53
2024/01/20 09:23:26;;;;;;;9.60;4.17;;;-2.60;99.90;;;;;;5034877;28;20097;-54
2024/01/20 09:25:52;;;;;;;14.50;4.93;;;-2.50;99.90;;;;;;5035324;28;20026;-53
2024/01/20 09:28:18;;;;;;;13.60;4.70;;;-2.40;99.90;;;;;;5034707;28;20034;-53
2024/01/20 09:30:43;;;;;;;16.17;6.47;;;-2.40;99.90;;;;;;5034380;28;20017;-54
2024/01/20 09:33:09;;;;;;;15.07;4.97;;;-2.30;99.90;;;;;;5033641;28;20461;-53
2024/01/20 09:35:37;;;;;;;14.03;4.87;;;-2.20;99.90;;;;;;5034494;28;20030;-51
2024/01/20 09:38:03;;;;;;;12.70;3.83;;;-2.30;99.90;;;;;;5035103;28;20428;-54
2024/01/20 09:40:30;;;;;;;13.27;5.03;;;-2.20;99.90;;;;;;5035129;28;20517;-56
2024/01/20 09:42:56;;;;;;;14.17;5.87;;;-2.00;99.90;;;;;;5034822;28;20033;-54
2024/01/20 09:45:22;;;;;;;19.33;5.77;;;-1.70;99.90;;;;;;5033825;28;20478;-55
2024/01/20 09:47:48;;;;;;;14.00;4.50;;;-1.30;99.90;;;;;;5035152;28;20037;-56
2024/01/20 09:50:13;;;;;;;15.50;5.60;;;-0.20;99.90;;;;;;5034383;28;20112;-52
2024/01/20 09:53:01;;;;;;;15.17;5.40;;;1.30;99.90;;;;;;5034746;28;20022;-55
2024/01/20 09:55:27;;;;;;;16.93;6.20;;;2.70;99.90;;;;;;5034056;28;20037;-55
2024/01/20 09:57:55;;;;;;;13.07;6.17;;;4.10;99.90;;;;;;5033168;28;20042;-59
2024/01/20 10:00:22;;;;;;;13.13;5.87;;;5.30;99.70;;;;;;5032083;28;20071;-54
2024/01/20 10:02:48;;;;;;;12.47;5.53;;;5.80;98.10;;;;;;5030869;28;20187;-50
2024/01/20 10:05:14;;;;;;;13.03;5.40;;;6.10;97.80;;;;;;5032906;28;20037;-54
2024/01/20 10:07:41;;;;;;;15.07;5.97;;;6.20;95.80;;;;;;5033208;28;20041;-50
2024/01/20 10:10:09;;;;;;;12.70;5.60;;;6.50;95.10;;;;;;5033434;28;20029;-54
2024/01/20 10:12:36;;;;;;;12.37;5.20;;;6.60;94.30;;;;;;5032889;28;20475;-53
2024/01/20 10:15:01;;;;;;;11.23;5.10;;;6.30;94.20;;;;;;5015178;28;20127;-54
2024/01/20 10:17:27;;;;;;;13.23;5.60;;;6.60;94.30;;;;;;5032893;28;20071;-52
2024/01/20 10:19:53;;;;;;;10.77;5.17;;;6.60;94.00;;;;;;5033435;28;20065;-54
2024/01/20 10:22:19;;;;;;;9.97;5.03;;;6.90;93.90;;;;;;5033566;28;20087;-51
2024/01/20 10:24:49;;;;;;;10.27;4.73;;;7.50;92.60;;;;;;5032234;28;20044;-50
2024/01/20 10:27:25;;;;;;;9.53;4.90;;;8.20;91.50;;;;;;5033845;28;20035;-51
2024/01/20 10:29:51;;;;;;;12.27;5.23;;;8.50;90.20;;;;;;5033928;28;20026;-51
2024/01/20 10:32:17;;;;;;;11.77;5.00;;;8.50;89.70;;;;;;5032516;28;20497;-53
2024/01/20 10:34:43;;;;;;;12.67;5.40;;;8.70;89.40;;;;;;5033712;28;20102;-51
2024/01/20 10:37:13;;;;;;;10.73;4.63;;;8.70;87.00;;;;;;5033717;28;20037;-51
2024/01/20 10:39:43;;;;;;;11.57;5.20;;;8.80;86.60;;;;;;5033534;28;20060;-50
2024/01/20 10:42:13;;;;;;;11.97;5.47;;;8.80;85.60;;;;;;5032155;28;20033;-50
2024/01/20 10:44:44;;;;;;;11.23;5.30;;;9.10;84.60;;;;;;5034144;28;20038;-52
2024/01/20 10:47:17;;;;;;;9.93;4.65;;;9.60;84.10;;;;;;5033414;28;20089;-51
2024/01/20 10:49:45;;;;;;;10.45;4.57;;;10.40;81.00;;;;;;5032345;28;20044;-51
2024/01/20 10:52:13;;;;;;;11.47;4.93;;;10.60;81.30;;;;;;5033099;28;20033;-53
2024/01/20 10:54:41;;;;;;;11.43;4.90;;;11.30;78.80;;;;;;5033505;28;20304;-53
2024/01/20 10:57:07;;;;;;;12.63;5.78;;;11.60;75.90;;;;;;5032213;28;20033;-52
2024/01/20 10:59:37;;;;;;;9.43;4.57;;;12.00;73.00;;;;;;5033432;28;20056;-56
2024/01/20 11:02:05;;;;;;;10.13;4.93;;;12.20;70.90;;;;;;5034128;28;20083;-53
2024/01/20 11:04:43;;;;;;;10.10;5.50;;;12.10;72.00;;;;;;5035998;28;20029;-50
2024/01/20 11:07:09;;;;;;;9.63;4.95;;;12.60;69.80;;;;;;5037399;28;20033;-51
2024/01/20 11:09:38;;;;;;;9.73;4.70;;;12.70;68.30;;;;;;5037557;28;20069;-50
2024/01/20 11:12:07;;;;;;;8.70;5.18;;;12.70;69.20;;;;;;5037131;28;20485;-50
2024/01/20 11:14:33;;;;;;;8.95;4.95;;;13.00;67.10;;;;;;5037483;28;20056;-51
2024/01/20 11:17:13;;;;;;;9.77;4.82;;;12.80;66.80;;;;;;5037719;28;20029;-52
2024/01/20 11:19:39;;;;;;;9.52;5.32;;;13.00;65.60;;;;;;5037549;28;20037;-51
2024/01/20 11:22:30;;;;;;;9.95;5.18;;;12.80;67.20;;;;;;5037001;28;20030;-58
2024/01/20 11:24:56;;;;;;;10.07;5.13;;;13.00;65.70;;;;;;5037356;28;20037;-52
2024/01/20 11:27:22;;;;;;;10.85;5.25;;;13.10;64.70;;;;;;5036158;28;20555;-55
2024/01/20 11:29:48;;;;;;;9.80;5.00;;;12.50;65.80;;;;;;5036770;28;20033;-53
2024/01/20 11:32:13;;;;;;;9.90;5.13;;;12.50;65.90;;;;;;5036678;28;20029;-50
2024/01/20 11:34:40;;;;;;;11.85;5.45;;;12.30;67.00;;;;;;5037094;28;20115;-52
2024/01/20 11:37:07;;;;;;;10.13;5.72;;;12.50;66.30;;;;;;5036985;28;20029;-55
2024/01/20 11:39:33;;;;;;;9.25;5.18;;;13.00;64.80;;;;;;5036883;28;20044;-54
2024/01/20 11:42:02;;;;;;;11.60;5.80;;;13.50;63.50;;;;;;5036756;28;20033;-55
2024/01/20 11:44:31;;;;;;;10.30;5.22;;;13.90;62.70;;;;;;5035232;28;20144;-54
2024/01/20 11:46:58;;;;;;;10.15;5.60;;;13.90;62.60;;;;;;5036492;28;20457;-53
2024/01/20 11:49:24;;;;;;;9.02;4.78;;;13.00;63.00;;;;;;5036804;28;20462;-55
2024/01/20 11:51:50;;;;;;;9.88;4.57;;;12.30;64.20;;;;;;5036750;28;20021;-54
2024/01/20 11:54:15;;;;;;;11.25;5.03;;;11.00;66.30;;;;;;5036254;28;20497;-55
2024/01/20 11:56:41;;;;;;;10.63;4.95;;;9.80;69.80;;;;;;5037649;28;20034;-54
2024/01/20 11:59:06;;;;;;;11.27;4.47;;;8.30;75.30;;;;;;5037059;28;20547;-55
2024/01/20 12:01:32;;;;;;;10.18;5.40;;;7.90;77.60;;;;;;5035695;28;20029;-54
2024/01/20 12:03:59;;;;;;;11.77;5.28;;;8.30;77.90;;;;;;5036728;28;20080;-55
2024/01/20 12:06:25;;;;;;;11.95;5.20;;;9.40;75.40;;;;;;5036492;28;20033;-55
2024/01/20 12:08:50;;;;;;;9.90;5.13;;;10.00;73.40;;;;;;5036173;28;20029;-54
2024/01/20 12:11:20;;;;;;;10.52;4.80;;;10.10;72.30;;;;;;5036255;28;20116;-54
2024/01/20 12:13:47;;;;;;;10.60;5.35;;;10.50;71.20;;;;;;5034878;28;20033;-55
2024/01/20 12:16:13;;;;;;;9.48;4.68;;;9.90;71.80;;;;;;5036094;28;20053;-55
2024/01/20 12:18:38;;;;;;;10.10;4.72;;;9.40;73.00;;;;;;5036416;28;20033;-54
2024/01/20 12:21:04;;;;;;;11.27;4.93;;;8.50;75.20;;;;;;5035931;28;20395;-55
2024/01/20 12:23:29;;;;;;;12.77;5.20;;;7.50;79.00;;;;;;5035951;28;20612;-52
2024/01/20 12:25:56;;;;;;;10.83;4.90;;;6.80;82.30;;;;;;5036558;28;20025;-55
2024/01/20 12:28:23;;;;;;;15.93;5.10;;;6.10;87.10;;;;;;5034592;28;20030;-56
2024/01/20 12:30:49;;;;;;;14.10;6.33;;;6.10;87.00;;;;;;5035430;28;20104;-54
2024/01/20 12:33:15;;;;;;;10.27;4.60;;;6.90;85.90;;;;;;5035499;28;20036;-56